Time;durP1;ratioP1;P1;durP2;ratioP2;P2;SDS_P1;SDS_P2;PMS_P1;PMS_P2;Temp;Humidity;BMP_temperature;BMP_pressure;BME280_temperature;BME280_humidity;BME280_pressure;Samples;Min_cycle;Max_cycle;Signal;HPM_P1;HPM_P2
2022/05/24 00:00:30;;;;;;;2.37;1.83;;;24.60;54.10;;;;;;4990108;28;20453;-44
2022/05/24 00:02:57;;;;;;;2.50;1.60;;;24.10;55.80;;;;;;4985563;28;20457;-45
2022/05/24 00:05:24;;;;;;;1.60;1.50;;;23.70;57.30;;;;;;4988203;28;20441;-45
2022/05/24 00:07:51;;;;;;;2.40;0.90;;;23.50;57.90;;;;;;4987516;28;20484;-48
2022/05/24 00:10:26;;;;;;;1.40;1.30;;;23.10;58.50;;;;;;4984221;28;20445;-45
2022/05/24 00:12:52;;;;;;;1.33;1.23;;;22.90;59.40;;;;;;4989205;28;20445;-47
2022/05/24 00:15:19;;;;;;;1.10;1.10;;;22.70;60.20;;;;;;4986653;28;20453;-46
2022/05/24 00:18:14;;;;;;;1.70;1.10;;;22.70;60.50;;;;;;5005261;28;20704;-47
2022/05/24 00:20:46;;;;;;;1.00;1.00;;;22.60;60.60;;;;;;4988677;28;20460;-48
2022/05/24 00:23:13;;;;;;;1.27;1.17;;;22.80;60.90;;;;;;4989433;28;20442;-44
2022/05/24 00:25:42;;;;;;;1.27;1.17;;;22.80;60.70;;;;;;4990175;28;20524;-48
2022/05/24 00:28:08;;;;;;;2.70;1.27;;;22.90;60.40;;;;;;4981935;28;20455;-47
2022/05/24 00:30:36;;;;;;;1.33;1.23;;;22.90;60.10;;;;;;4983718;28;20777;-45
2022/05/24 00:33:02;;;;;;;1.60;1.37;;;23.10;60.10;;;;;;4989147;28;20458;-49
2022/05/24 00:35:27;;;;;;;1.30;1.20;;;23.10;60.00;;;;;;4977507;28;20441;-44
2022/05/24 00:37:53;;;;;;;1.40;1.30;;;23.10;59.90;;;;;;4988862;28;20999;-44
2022/05/24 00:40:43;;;;;;;1.60;1.50;;;23.10;60.10;;;;;;4985139;28;20199;-49
2022/05/24 00:43:13;;;;;;;1.97;1.40;;;22.70;60.30;;;;;;4983180;28;20566;-45
2022/05/24 00:45:45;;;;;;;2.13;1.50;;;22.70;61.50;;;;;;4981476;28;20445;-44
2022/05/24 00:48:37;;;;;;;1.60;1.50;;;22.90;61.50;;;;;;4981557;28;20802;-49
2022/05/24 00:51:05;;;;;;;1.10;1.00;;;22.90;61.30;;;;;;4988459;28;20879;-44
2022/05/24 00:53:41;;;;;;;2.20;1.40;;;22.90;61.10;;;;;;4987119;28;20521;-45
2022/05/24 00:56:14;;;;;;;1.60;1.20;;;23.00;61.00;;;;;;4978965;28;20458;-48
2022/05/24 00:58:46;;;;;;;1.17;1.07;;;23.10;61.50;;;;;;4980337;28;20489;-47
2022/05/24 01:01:27;;;;;;;1.30;1.20;;;23.10;60.50;;;;;;4986441;28;20540;-47
2022/05/24 01:03:52;;;;;;;3.90;1.43;;;23.30;59.90;;;;;;4986471;28;20438;-45
2022/05/24 01:06:18;;;;;;;1.50;1.40;;;23.30;59.60;;;;;;4990504;28;20451;-46
2022/05/24 01:08:44;;;;;;;1.27;1.17;;;23.40;59.40;;;;;;4990774;28;20314;-46
2022/05/24 01:11:11;;;;;;;1.57;1.40;;;23.50;59.30;;;;;;4985349;28;20191;-46
2022/05/24 01:13:38;;;;;;;1.70;1.57;;;23.60;59.00;;;;;;4986560;28;20438;-47
2022/05/24 01:16:04;;;;;;;1.73;1.20;;;23.70;58.80;;;;;;4986484;28;20450;-48
2022/05/24 01:18:30;;;;;;;3.10;1.33;;;23.80;58.60;;;;;;4989277;28;20575;-44
2022/05/24 01:21:04;;;;;;;1.87;1.77;;;23.80;58.40;;;;;;4989170;28;20453;-47
2022/05/24 01:23:54;;;;;;;1.70;1.60;;;23.90;58.20;;;;;;4989985;28;20525;-48
2022/05/24 01:26:25;;;;;;;1.10;1.10;;;24.00;58.10;;;;;;4986637;28;20799;-45
2022/05/24 01:28:54;;;;;;;1.50;1.40;;;24.00;58.20;;;;;;4986039;28;20445;-44
2022/05/24 01:31:22;;;;;;;1.30;1.20;;;24.00;58.00;;;;;;4997475;28;20834;-44
2022/05/24 01:36:49;;;;;;;1.83;1.73;;;24.00;58.00;;;;;;4967204;28;21013;-49
2022/05/24 01:39:14;;;;;;;1.57;1.43;;;24.00;58.00;;;;;;4979130;28;20485;-46
2022/05/24 01:41:44;;;;;;;1.50;1.23;;;24.10;58.10;;;;;;4984743;28;20199;-44
2022/05/24 01:44:12;;;;;;;1.60;1.50;;;24.10;58.00;;;;;;4988548;28;20225;-44
2022/05/24 01:46:46;;;;;;;1.47;1.30;;;24.10;57.80;;;;;;4983362;28;20508;-46
2022/05/24 01:49:30;;;;;;;1.67;1.57;;;24.10;57.80;;;;;;4987021;28;20437;-44
2022/05/24 01:52:03;;;;;;;3.70;1.80;;;24.10;57.90;;;;;;4983807;28;20882;-44
2022/05/24 01:54:30;;;;;;;8.60;1.87;;;24.10;57.90;;;;;;4985484;28;20564;-44
2022/05/24 01:57:11;;;;;;;2.33;2.10;;;24.10;57.90;;;;;;4985385;28;20454;-46
2022/05/24 01:59:39;;;;;;;1.10;1.10;;;24.10;57.80;;;;;;4986085;28;20453;-47
2022/05/24 02:02:04;;;;;;;3.80;1.80;;;24.10;58.00;;;;;;4985364;28;20453;-44
2022/05/24 02:04:32;;;;;;;1.90;1.73;;;24.10;58.00;;;;;;4989803;28;20452;-46
2022/05/24 02:07:05;;;;;;;1.70;1.53;;;24.10;58.00;;;;;;4986481;28;20267;-44
2022/05/24 02:09:33;;;;;;;1.73;1.63;;;24.10;58.00;;;;;;4987067;28;21482;-44
2022/05/24 02:12:27;;;;;;;2.40;1.87;;;24.10;57.60;;;;;;4985744;28;20812;-45
2022/05/24 02:15:07;;;;;;;3.00;1.40;;;24.20;57.30;;;;;;4985325;28;20457;-46
2022/05/24 02:17:39;;;;;;;1.50;1.40;;;24.20;57.40;;;;;;4983167;28;20476;-44
2022/05/24 02:20:08;;;;;;;1.93;1.73;;;24.30;57.50;;;;;;4983446;28;21004;-45
2022/05/24 02:22:34;;;;;;;2.00;1.80;;;24.30;57.40;;;;;;4982456;28;20446;-44
2022/05/24 02:25:13;;;;;;;2.07;1.60;;;24.30;57.30;;;;;;4981726;28;20496;-44
2022/05/24 02:27:44;;;;;;;2.13;1.90;;;24.20;57.40;;;;;;4979412;28;20313;-45
2022/05/24 02:30:13;;;;;;;2.00;1.80;;;24.20;57.60;;;;;;4997548;28;20489;-44
2022/05/24 02:32:38;;;;;;;1.87;1.40;;;24.20;57.80;;;;;;4987160;28;20562;-44
2022/05/24 02:35:05;;;;;;;1.20;1.10;;;24.10;57.80;;;;;;4986197;28;20496;-45
2022/05/24 02:37:30;;;;;;;2.00;1.80;;;24.10;57.90;;;;;;4985260;28;20218;-47
2022/05/24 02:45:11;;;;;;;3.83;3.43;;;24.10;57.40;;;;;;4983090;28;20537;-44
2022/05/24 02:47:37;;;;;;;4.50;4.10;;;24.10;57.20;;;;;;4985988;28;20249;-44
2022/05/24 02:50:04;;;;;;;3.83;3.13;;;24.00;57.30;;;;;;4988138;28;20442;-45
2022/05/24 02:52:30;;;;;;;3.37;2.70;;;24.00;57.50;;;;;;4981026;28;21634;-44
2022/05/24 02:54:56;;;;;;;2.80;2.60;;;23.90;57.70;;;;;;4986759;28;20478;-43
2022/05/24 02:57:23;;;;;;;2.70;1.87;;;23.90;57.80;;;;;;4978432;28;20201;-45
2022/05/24 02:59:48;;;;;;;1.70;1.60;;;23.80;57.80;;;;;;4980996;28;20452;-43
2022/05/24 03:02:14;;;;;;;1.63;1.53;;;23.70;57.80;;;;;;4980028;28;20929;-44
2022/05/24 03:04:39;;;;;;;2.10;2.00;;;23.60;58.10;;;;;;4981432;28;20244;-44
2022/05/24 03:09:51;;;;;;;1.90;1.80;;;23.40;58.60;;;;;;4972509;28;20341;-42
2022/05/24 03:15:01;;;;;;;2.37;1.90;;;23.30;58.70;;;;;;4977069;28;20293;-45
2022/05/24 03:17:26;;;;;;;2.10;1.90;;;23.20;58.90;;;;;;4981713;28;20838;-43
2022/05/24 03:19:52;;;;;;;3.43;2.07;;;23.20;59.10;;;;;;4983868;28;20196;-44
2022/05/24 03:22:18;;;;;;;2.53;2.33;;;23.10;59.10;;;;;;4987072;28;20212;-42
2022/05/24 03:24:43;;;;;;;1.83;1.73;;;23.10;59.40;;;;;;4985722;28;20650;-43
2022/05/24 03:27:11;;;;;;;1.93;1.80;;;23.00;59.50;;;;;;4986630;28;20562;-44
2022/05/24 03:29:42;;;;;;;2.10;2.00;;;22.90;59.60;;;;;;4978300;28;20213;-42
2022/05/24 03:32:09;;;;;;;2.03;1.93;;;22.90;59.70;;;;;;4980947;28;20524;-43
2022/05/24 03:34:35;;;;;;;1.80;1.70;;;22.80;60.00;;;;;;4986050;28;20798;-42
2022/05/24 03:37:01;;;;;;;2.30;2.10;;;22.80;60.00;;;;;;4986926;28;20446;-42
2022/05/24 03:39:27;;;;;;;1.93;1.83;;;22.80;60.00;;;;;;4982787;28;20555;-44
2022/05/24 03:41:52;;;;;;;2.40;2.20;;;22.80;60.40;;;;;;4985487;28;20282;-43
2022/05/24 03:44:18;;;;;;;2.20;2.00;;;22.70;60.70;;;;;;4987011;28;20199;-42
2022/05/24 03:46:43;;;;;;;3.03;2.07;;;22.70;60.80;;;;;;4986977;28;20571;-43
2022/05/24 03:49:10;;;;;;;1.80;1.70;;;22.60;60.90;;;;;;4983304;28;20202;-42
2022/05/24 03:51:35;;;;;;;2.13;1.93;;;22.60;61.10;;;;;;4985942;28;20206;-42
2022/05/24 03:54:01;;;;;;;2.20;2.10;;;22.60;61.20;;;;;;4988654;28;20477;-43
2022/05/24 03:56:27;;;;;;;2.20;2.00;;;22.60;61.10;;;;;;4984834;28;20198;-43
2022/05/24 03:58:52;;;;;;;2.17;2.07;;;22.70;60.90;;;;;;4991053;28;20231;-43
2022/05/24 04:01:18;;;;;;;2.00;1.90;;;22.60;60.80;;;;;;4984186;28;20205;-42
2022/05/24 04:03:43;;;;;;;2.67;2.47;;;22.60;60.80;;;;;;4987826;28;20205;-44
2022/05/24 04:06:09;;;;;;;2.47;2.27;;;22.60;60.90;;;;;;4982957;28;20198;-44
2022/05/24 04:08:35;;;;;;;2.77;2.27;;;22.60;61.00;;;;;;4989226;28;20222;-42
2022/05/24 04:11:05;;;;;;;2.43;2.10;;;22.60;61.20;;;;;;4990199;28;20313;-43
2022/05/24 04:13:31;;;;;;;3.60;2.03;;;22.60;61.30;;;;;;4990860;28;20529;-44
2022/05/24 04:15:57;;;;;;;2.17;2.07;;;22.50;61.80;;;;;;4990285;28;20893;-42
2022/05/24 04:18:22;;;;;;;5.70;2.10;;;22.50;62.00;;;;;;4989944;28;20217;-43
2022/05/24 04:20:48;;;;;;;2.47;2.33;;;22.40;62.20;;;;;;4989066;28;20194;-42
2022/05/24 04:23:14;;;;;;;2.93;2.13;;;22.30;62.40;;;;;;4980891;28;20203;-42
2022/05/24 04:25:40;;;;;;;1.70;1.60;;;22.30;62.40;;;;;;4991787;28;20230;-42
2022/05/24 04:28:06;;;;;;;2.30;2.20;;;22.40;62.10;;;;;;4985237;28;20533;-42
2022/05/24 04:30:32;;;;;;;2.37;2.27;;;22.40;62.00;;;;;;4984177;28;20971;-42
2022/05/24 04:32:58;;;;;;;2.67;2.47;;;22.40;62.20;;;;;;4988558;28;20201;-43
2022/05/24 04:35:24;;;;;;;4.70;2.17;;;22.20;62.50;;;;;;4985419;28;20481;-43
2022/05/24 04:37:50;;;;;;;3.50;2.50;;;22.10;63.40;;;;;;4987200;28;20237;-42
2022/05/24 04:40:15;;;;;;;2.50;2.30;;;22.10;63.20;;;;;;4990442;28;20454;-43
2022/05/24 04:42:41;;;;;;;2.30;2.03;;;22.20;63.00;;;;;;4988239;28;20540;-42
2022/05/24 04:45:14;;;;;;;2.73;2.33;;;22.20;62.90;;;;;;4976622;28;20690;-44
2022/05/24 04:47:40;;;;;;;2.53;2.23;;;22.30;62.70;;;;;;4987239;28;20199;-42
2022/05/24 04:50:11;;;;;;;2.43;2.23;;;22.40;62.80;;;;;;4986618;28;20807;-44
2022/05/24 04:52:39;;;;;;;3.20;2.90;;;22.30;62.70;;;;;;4986907;28;20599;-43
2022/05/24 04:55:08;;;;;;;2.60;2.40;;;22.40;62.50;;;;;;4986813;28;20490;-43
2022/05/24 04:57:34;;;;;;;2.83;2.23;;;22.40;62.40;;;;;;4989269;28;20517;-43
2022/05/24 04:59:59;;;;;;;2.23;2.10;;;22.30;62.30;;;;;;4991105;28;20493;-42
2022/05/24 05:02:25;;;;;;;5.10;2.40;;;22.20;62.90;;;;;;4988685;28;20285;-42
2022/05/24 05:04:53;;;;;;;2.37;2.23;;;22.00;63.80;;;;;;4989565;28;20194;-42
2022/05/24 05:07:22;;;;;;;2.90;2.70;;;22.00;63.90;;;;;;4988448;28;20638;-43
2022/05/24 05:09:50;;;;;;;7.17;2.03;;;22.10;63.50;;;;;;4986327;28;21256;-42
2022/05/24 05:12:16;;;;;;;2.50;2.30;;;22.00;63.60;;;;;;4989950;28;20548;-42
2022/05/24 05:14:42;;;;;;;5.00;2.30;;;22.10;63.70;;;;;;4981377;28;20843;-43
2022/05/24 05:17:08;;;;;;;2.33;2.17;;;22.20;63.30;;;;;;4987789;28;20449;-42
2022/05/24 05:19:34;;;;;;;2.30;2.20;;;22.40;63.00;;;;;;4986822;28;20674;-42
2022/05/24 05:22:02;;;;;;;2.53;2.33;;;22.50;62.80;;;;;;4983629;28;20438;-42
2022/05/24 05:24:28;;;;;;;3.97;2.47;;;22.40;63.20;;;;;;4989140;28;20195;-43
2022/05/24 05:26:53;;;;;;;2.37;2.17;;;22.40;63.10;;;;;;4985764;28;21691;-43
2022/05/24 05:31:16;;;;;;;3.43;2.30;;;22.30;62.80;;;;;;4989375;28;21036;-42
2022/05/24 05:32:05;;;;;;;2.33;1.83;;;22.10;63.70;;;;;;4985790;28;20198;-43
2022/05/24 05:34:31;;;;;;;4.23;2.10;;;22.10;64.40;;;;;;4986233;28;20468;-44
2022/05/24 05:36:57;;;;;;;2.23;1.83;;;22.20;63.90;;;;;;4990508;28;20445;-44
2022/05/24 05:39:23;;;;;;;4.03;1.67;;;22.40;63.10;;;;;;4983639;28;20258;-43
2022/05/24 05:41:48;;;;;;;6.20;1.90;;;22.70;62.20;;;;;;4983045;28;20705;-42
2022/05/24 05:44:14;;;;;;;2.17;1.97;;;22.90;61.30;;;;;;4984795;28;20438;-43
2022/05/24 05:46:39;;;;;;;2.67;2.10;;;23.10;60.80;;;;;;4980457;28;20205;-43
2022/05/24 05:49:05;;;;;;;1.63;1.53;;;23.20;60.30;;;;;;4986234;28;20270;-43
2022/05/24 05:51:31;;;;;;;1.50;1.40;;;23.30;59.80;;;;;;4986206;28;20709;-43
2022/05/24 05:53:57;;;;;;;2.03;1.93;;;23.40;59.50;;;;;;4981423;28;20483;-44
2022/05/24 05:56:23;;;;;;;1.70;1.60;;;23.60;59.30;;;;;;4984635;28;20222;-44
2022/05/24 05:58:49;;;;;;;1.80;1.70;;;23.60;59.00;;;;;;4989514;28;20226;-44
2022/05/24 06:01:21;;;;;;;5.33;1.67;;;23.70;58.70;;;;;;4984918;28;20930;-43
2022/05/24 06:03:47;;;;;;;1.90;1.80;;;23.80;58.50;;;;;;4986069;28;20508;-43
2022/05/24 06:06:21;;;;;;;4.57;1.50;;;23.90;58.40;;;;;;4984518;28;20797;-43
2022/05/24 06:08:47;;;;;;;1.80;1.70;;;24.00;58.20;;;;;;4983129;28;20437;-47
2022/05/24 06:11:13;;;;;;;2.30;1.73;;;24.10;58.20;;;;;;4989956;28;20975;-46
2022/05/24 06:13:39;;;;;;;2.43;2.07;;;24.10;57.80;;;;;;4986103;28;20191;-44
2022/05/24 06:16:04;;;;;;;6.97;1.90;;;24.00;57.60;;;;;;4989317;28;20450;-45
2022/05/24 06:18:30;;;;;;;3.20;1.80;;;24.00;57.50;;;;;;4986756;28;20236;-44
2022/05/24 06:20:56;;;;;;;1.70;1.60;;;24.00;57.10;;;;;;4978139;28;20198;-48
2022/05/24 06:23:22;;;;;;;1.93;1.40;;;23.60;55.60;;;;;;4985205;28;20198;-45
2022/05/24 06:25:47;;;;;;;3.20;1.40;;;23.50;55.80;;;;;;4988900;28;20202;-45
2022/05/24 06:28:17;;;;;;;3.23;1.40;;;23.50;55.90;;;;;;4989480;28;20446;-44
2022/05/24 06:30:43;;;;;;;3.50;1.23;;;23.50;55.30;;;;;;4977540;28;20194;-45
2022/05/24 06:33:09;;;;;;;1.77;1.50;;;23.30;54.40;;;;;;4982219;28;20481;-44
2022/05/24 06:35:38;;;;;;;1.67;1.57;;;23.30;54.90;;;;;;4986951;28;20548;-44
2022/05/24 06:38:03;;;;;;;2.20;1.60;;;23.30;54.90;;;;;;4983588;28;20545;-44
2022/05/24 06:40:29;;;;;;;1.83;1.63;;;23.20;55.70;;;;;;4982422;28;20446;-47
2022/05/24 06:42:55;;;;;;;1.70;1.60;;;23.20;56.10;;;;;;4983635;28;20198;-43
2022/05/24 06:45:21;;;;;;;1.60;1.40;;;23.20;55.80;;;;;;4986901;28;20578;-44
2022/05/24 06:47:47;;;;;;;1.60;1.50;;;23.20;55.40;;;;;;4986821;28;20603;-45
2022/05/24 06:50:13;;;;;;;2.03;1.63;;;23.10;55.30;;;;;;4988733;28;20524;-47
2022/05/24 06:52:39;;;;;;;3.67;1.60;;;23.00;55.40;;;;;;4988317;28;20199;-43
2022/05/24 06:55:07;;;;;;;1.57;1.47;;;22.90;55.60;;;;;;4988198;28;21352;-43
2022/05/24 06:57:33;;;;;;;4.63;1.90;;;23.00;55.40;;;;;;4989416;28;20774;-44
2022/05/24 07:02:43;;;;;;;2.80;1.50;;;22.70;56.20;;;;;;4982581;28;20477;-45
2022/05/24 07:05:14;;;;;;;1.67;1.50;;;22.90;56.30;;;;;;5002189;28;20889;-45
2022/05/24 07:07:41;;;;;;;2.93;1.50;;;23.00;56.10;;;;;;4982605;28;20205;-44
2022/05/24 07:10:09;;;;;;;1.60;1.50;;;22.90;55.60;;;;;;4985971;28;20556;-45
2022/05/24 07:12:35;;;;;;;2.40;1.67;;;22.90;55.60;;;;;;4986158;28;20446;-43
2022/05/24 07:15:01;;;;;;;4.13;1.67;;;23.00;55.70;;;;;;4983622;28;20964;-43
2022/05/24 07:17:27;;;;;;;1.87;1.13;;;22.70;55.90;;;;;;4985001;28;20219;-46
2022/05/24 07:19:52;;;;;;;4.00;1.23;;;21.40;50.80;;;;;;4985913;28;20210;-45
2022/05/24 07:22:18;;;;;;;4.63;1.13;;;20.10;57.40;;;;;;4986135;28;20449;-44
2022/05/24 07:24:48;;;;;;;2.00;0.80;;;19.60;59.50;;;;;;4989972;28;20650;-44
2022/05/24 07:27:16;;;;;;;1.63;1.20;;;19.20;61.30;;;;;;4989691;28;20433;-43
2022/05/24 07:29:42;;;;;;;1.93;1.37;;;18.80;61.80;;;;;;4986757;28;20455;-44
2022/05/24 07:32:08;;;;;;;0.90;0.90;;;18.70;63.20;;;;;;4980147;28;20450;-44
2022/05/24 07:34:35;;;;;;;1.50;0.93;;;19.00;63.30;;;;;;4983721;28;20197;-44
2022/05/24 07:37:03;;;;;;;5.37;2.13;;;19.00;62.70;;;;;;4983708;28;20450;-44
2022/05/24 07:39:28;;;;;;;2.63;0.77;;;19.00;62.70;;;;;;4983082;28;20962;-45
2022/05/24 07:47:35;;;;;;;1.33;1.10;;;19.50;62.30;;;;;;4961307;28;20478;-44
2022/05/24 07:50:02;;;;;;;0.80;0.80;;;19.40;61.60;;;;;;4990945;28;20499;-45
2022/05/24 07:52:28;;;;;;;2.97;1.20;;;19.30;61.80;;;;;;4979997;28;20921;-44
2022/05/24 07:54:53;;;;;;;3.53;1.23;;;19.50;61.80;;;;;;4977283;28;20510;-43
2022/05/24 07:57:19;;;;;;;26.20;3.20;;;19.50;61.10;;;;;;4977355;28;20202;-43
2022/05/24 07:59:47;;;;;;;5.00;1.57;;;19.60;61.90;;;;;;4985720;28;20245;-45
2022/05/24 08:02:15;;;;;;;5.33;1.30;;;19.80;62.20;;;;;;4978025;28;20929;-46
2022/05/24 08:04:40;;;;;;;3.50;1.10;;;19.90;61.70;;;;;;4978932;28;20851;-45
2022/05/24 08:07:06;;;;;;;2.17;1.30;;;20.00;61.50;;;;;;4979865;28;20441;-45
2022/05/24 08:09:32;;;;;;;1.23;1.00;;;19.90;60.30;;;;;;4988268;28;20198;-45
2022/05/24 08:11:58;;;;;;;2.20;1.00;;;20.00;60.70;;;;;;4983669;28;20206;-44
2022/05/24 08:14:26;;;;;;;1.43;0.90;;;20.20;60.50;;;;;;4987127;28;20515;-44
2022/05/24 08:16:52;;;;;;;1.57;1.47;;;20.40;60.50;;;;;;5002570;28;20202;-45
2022/05/24 08:19:18;;;;;;;1.80;0.97;;;20.60;60.40;;;;;;4989124;28;20485;-44
2022/05/24 08:21:43;;;;;;;3.00;1.33;;;20.70;60.40;;;;;;4991003;28;20202;-44
2022/05/24 08:24:09;;;;;;;1.37;1.23;;;20.80;60.90;;;;;;4991058;28;20306;-47
2022/05/24 08:26:37;;;;;;;1.43;0.80;;;20.90;60.60;;;;;;4991944;28;20207;-43
2022/05/24 08:29:03;;;;;;;2.43;1.00;;;21.10;59.70;;;;;;4992210;28;20975;-43
2022/05/24 08:31:29;;;;;;;2.93;1.00;;;21.10;59.80;;;;;;4989709;28;20450;-45
2022/05/24 08:33:54;;;;;;;4.40;1.20;;;21.10;59.40;;;;;;4990988;28;20965;-44
2022/05/24 08:36:20;;;;;;;4.87;0.80;;;21.20;59.40;;;;;;4990949;28;20199;-44
2022/05/24 08:38:46;;;;;;;2.80;0.90;;;21.20;59.70;;;;;;4986744;28;20238;-43
2022/05/24 08:41:28;;;;;;;4.33;0.97;;;21.30;59.40;;;;;;4989385;28;20273;-44
2022/05/24 08:50:00;;;;;;;1.17;0.90;;;21.00;56.90;;;;;;4990836;28;20504;-44
2022/05/24 08:52:36;;;;;;;1.37;0.97;;;20.90;58.00;;;;;;4989734;28;20804;-43
2022/05/24 08:55:03;;;;;;;1.17;0.90;;;20.80;57.90;;;;;;4990851;28;20538;-45
2022/05/24 08:57:49;;;;;;;1.37;1.27;;;21.00;58.70;;;;;;4982443;28;20448;-44
2022/05/24 09:00:36;;;;;;;2.80;1.30;;;21.10;58.30;;;;;;4987197;28;20851;-47
2022/05/24 09:03:05;;;;;;;0.90;0.90;;;21.20;57.90;;;;;;4985314;28;20448;-45
2022/05/24 09:05:38;;;;;;;0.70;0.70;;;21.50;58.10;;;;;;4989748;28;20500;-46
2022/05/24 09:08:06;;;;;;;1.70;1.00;;;21.60;57.50;;;;;;4988554;28;20448;-44
2022/05/24 09:10:41;;;;;;;0.70;0.70;;;21.60;57.70;;;;;;4982937;28;20461;-46
2022/05/24 09:13:31;;;;;;;4.97;0.90;;;21.50;56.30;;;;;;4983511;28;20441;-44
2022/05/24 09:16:01;;;;;;;0.93;0.80;;;21.40;54.60;;;;;;4984456;28;20442;-44
2022/05/24 09:18:55;;;;;;;1.30;1.00;;;21.40;56.40;;;;;;4987706;28;20485;-44
2022/05/24 09:21:25;;;;;;;5.50;1.10;;;21.20;54.70;;;;;;4987943;28;20450;-44
2022/05/24 09:24:02;;;;;;;0.80;0.80;;;21.30;55.50;;;;;;4980178;28;20452;-44
2022/05/24 09:26:29;;;;;;;5.70;1.10;;;21.30;54.10;;;;;;4983349;28;20496;-43
2022/05/24 09:28:57;;;;;;;2.63;1.07;;;21.20;53.40;;;;;;4979589;28;20481;-44
2022/05/24 09:31:35;;;;;;;1.33;0.87;;;21.20;54.40;;;;;;4983820;28;20453;-44
2022/05/24 09:34:07;;;;;;;6.57;0.80;;;21.40;54.70;;;;;;4986635;28;20507;-44
2022/05/24 09:36:39;;;;;;;3.80;0.70;;;21.40;53.00;;;;;;4988694;28;20561;-43
2022/05/24 09:39:20;;;;;;;0.70;0.70;;;21.50;53.00;;;;;;4986367;28;20489;-44
2022/05/24 09:41:54;;;;;;;2.40;0.80;;;21.70;53.20;;;;;;4988586;28;20440;-43
2022/05/24 09:44:20;;;;;;;1.13;1.03;;;21.50;51.90;;;;;;4985343;28;20483;-45
2022/05/24 09:46:47;;;;;;;1.97;0.90;;;21.60;52.40;;;;;;4989288;28;20528;-44
2022/05/24 09:49:24;;;;;;;3.13;0.83;;;21.70;51.70;;;;;;4986972;28;20642;-45
2022/05/24 09:51:54;;;;;;;0.70;0.70;;;21.60;51.50;;;;;;4984227;28;20453;-44
2022/05/24 09:54:24;;;;;;;0.70;0.70;;;21.70;50.50;;;;;;4986783;28;20497;-45
2022/05/24 09:57:11;;;;;;;0.90;0.73;;;21.70;51.50;;;;;;4987558;28;20457;-45
2022/05/24 09:59:40;;;;;;;3.07;1.07;;;21.80;52.00;;;;;;4985429;28;20548;-44
2022/05/24 10:02:28;;;;;;;1.93;1.00;;;21.80;51.70;;;;;;4982019;28;20453;-43
2022/05/24 10:04:54;;;;;;;1.87;0.80;;;21.70;51.60;;;;;;4988891;28;20454;-44
2022/05/24 10:07:27;;;;;;;1.27;0.87;;;21.80;50.80;;;;;;4986506;28;20509;-44
2022/05/24 10:10:26;;;;;;;0.80;0.77;;;22.10;52.20;;;;;;4991976;28;20442;-44
2022/05/24 10:13:19;;;;;;;0.87;0.87;;;22.50;51.80;;;;;;4988185;28;20450;-44
2022/05/24 10:16:00;;;;;;;1.50;0.63;;;22.70;49.90;;;;;;4985245;28;20446;-44
2022/05/24 10:19:03;;;;;;;1.20;0.70;;;23.00;48.30;;;;;;4989479;28;20992;-44
2022/05/24 10:21:37;;;;;;;3.80;0.90;;;22.70;47.10;;;;;;4986935;28;20456;-44
2022/05/24 10:24:33;;;;;;;1.30;0.97;;;22.80;48.80;;;;;;4987709;28;20448;-45
2022/05/24 10:27:24;;;;;;;2.57;0.90;;;23.00;47.60;;;;;;4983894;28;21110;-43
2022/05/24 10:29:54;;;;;;;0.80;0.80;;;23.10;46.90;;;;;;4982190;28;20500;-44
2022/05/24 10:39:04;;;;;;;3.03;1.00;;;23.60;45.50;;;;;;4987648;28;20550;-44
2022/05/24 10:41:38;;;;;;;1.00;0.90;;;23.80;47.50;;;;;;4987286;28;20818;-45
2022/05/24 10:44:21;;;;;;;1.37;0.77;;;24.40;46.40;;;;;;4984587;28;21365;-45
2022/05/24 10:47:14;;;;;;;0.87;0.87;;;24.70;44.60;;;;;;4988185;28;20461;-45
2022/05/24 10:49:48;;;;;;;1.57;0.80;;;25.00;43.60;;;;;;4986816;28;20532;-44
2022/05/24 10:52:22;;;;;;;1.17;1.00;;;25.50;43.10;;;;;;4984473;28;20446;-45
2022/05/24 10:55:02;;;;;;;0.73;0.70;;;25.60;40.70;;;;;;4988670;28;20482;-45
2022/05/24 10:57:39;;;;;;;2.90;0.90;;;25.80;41.20;;;;;;4987545;28;20457;-44
2022/05/24 11:00:12;;;;;;;0.83;0.73;;;25.70;41.70;;;;;;4988706;28;20944;-45
2022/05/24 11:02:57;;;;;;;1.93;0.90;;;25.80;41.50;;;;;;4988431;28;20478;-44
2022/05/24 11:05:27;;;;;;;0.97;0.70;;;25.80;40.70;;;;;;4989098;28;20480;-45
2022/05/24 11:08:34;;;;;;;0.80;0.80;;;25.50;39.50;;;;;;4986423;28;21065;-45
2022/05/24 11:11:06;;;;;;;0.80;0.70;;;25.60;40.10;;;;;;4955141;28;20476;-46
2022/05/24 11:13:53;;;;;;;1.00;0.90;;;25.90;39.80;;;;;;4990122;28;20448;-47
2022/05/24 11:16:38;;;;;;;0.80;0.80;;;26.00;39.20;;;;;;4985085;28;20453;-45
2022/05/24 11:19:09;;;;;;;2.33;0.70;;;25.70;39.00;;;;;;4985991;28;20489;-45
2022/05/24 11:21:41;;;;;;;2.40;0.90;;;25.80;40.60;;;;;;4987715;28;20457;-45
2022/05/24 11:24:20;;;;;;;5.70;1.13;;;25.90;38.90;;;;;;4986983;28;20565;-45
2022/05/24 11:26:53;;;;;;;2.80;0.90;;;25.90;38.70;;;;;;4987815;28;20862;-45
2022/05/24 11:29:28;;;;;;;2.23;0.90;;;25.80;38.70;;;;;;4983442;28;20442;-45
2022/05/24 11:32:01;;;;;;;2.80;0.83;;;25.80;38.60;;;;;;4984503;28;20460;-45
2022/05/24 11:34:31;;;;;;;1.70;0.90;;;26.00;37.30;;;;;;4987676;28;20496;-45
2022/05/24 11:37:28;;;;;;;1.63;0.80;;;25.70;37.50;;;;;;4986917;28;20446;-46
2022/05/24 11:39:54;;;;;;;1.83;0.93;;;25.60;38.10;;;;;;4982302;28;20502;-46
2022/05/24 11:42:43;;;;;;;0.93;0.90;;;25.70;38.10;;;;;;4983159;28;20457;-45
2022/05/24 11:45:28;;;;;;;1.03;0.70;;;25.70;37.90;;;;;;4987432;28;20608;-46
2022/05/24 11:48:06;;;;;;;0.90;0.90;;;26.20;39.00;;;;;;4989178;28;20858;-46
2022/05/24 11:50:41;;;;;;;3.70;0.80;;;26.30;37.90;;;;;;4992101;28;20941;-46
2022/05/24 11:53:33;;;;;;;0.87;0.80;;;26.50;37.60;;;;;;4979312;28;20437;-48
2022/05/24 11:56:00;;;;;;;0.90;0.90;;;26.80;37.50;;;;;;4990749;28;20477;-46
2022/05/24 11:58:32;;;;;;;1.10;1.00;;;26.60;37.10;;;;;;4993712;28;20988;-45
2022/05/24 12:01:06;;;;;;;3.17;0.80;;;26.80;36.90;;;;;;4989716;28;20466;-47
2022/05/24 12:09:25;;;;;;;1.67;0.90;;;26.40;36.30;;;;;;4991480;28;20508;-44
2022/05/24 12:12:20;;;;;;;1.90;0.90;;;26.20;36.60;;;;;;4987404;28;20903;-46
2022/05/24 12:14:46;;;;;;;0.80;0.80;;;26.10;36.90;;;;;;4982808;28;20535;-45
2022/05/24 12:17:24;;;;;;;1.60;1.00;;;26.20;37.30;;;;;;4987188;28;21042;-44
2022/05/24 12:19:52;;;;;;;1.03;0.70;;;26.20;37.30;;;;;;4985134;28;20488;-46
2022/05/24 12:22:32;;;;;;;2.87;0.97;;;26.30;36.80;;;;;;4991842;28;20434;-47
2022/05/24 12:25:04;;;;;;;3.37;0.90;;;26.30;36.30;;;;;;4986565;28;20531;-47
2022/05/24 12:27:41;;;;;;;2.70;1.07;;;26.20;36.70;;;;;;4985215;28;20449;-48
2022/05/24 12:30:39;;;;;;;3.30;1.10;;;25.70;35.20;;;;;;4986165;28;20586;-48
2022/05/24 12:33:23;;;;;;;2.50;1.00;;;25.20;35.50;;;;;;4991891;28;20445;-45
2022/05/24 12:35:52;;;;;;;9.47;1.20;;;25.30;36.00;;;;;;4989798;28;20508;-46
2022/05/24 12:38:22;;;;;;;1.03;1.03;;;25.00;36.30;;;;;;4990173;28;20856;-44
2022/05/24 12:40:49;;;;;;;2.60;0.80;;;25.00;36.90;;;;;;4990210;28;20914;-45
2022/05/24 12:43:17;;;;;;;0.80;0.80;;;25.20;36.60;;;;;;4989779;28;21013;-46
2022/05/24 12:45:45;;;;;;;1.60;0.93;;;25.30;36.90;;;;;;4986613;28;20445;-45
2022/05/24 12:48:35;;;;;;;4.33;1.00;;;25.40;36.70;;;;;;4986790;28;20948;-45
2022/05/24 12:51:07;;;;;;;1.80;0.80;;;25.50;36.20;;;;;;4983843;28;20460;-45
2022/05/24 12:53:34;;;;;;;1.20;1.10;;;25.40;35.80;;;;;;4986970;28;20798;-45
2022/05/24 12:56:04;;;;;;;8.90;1.10;;;25.40;35.90;;;;;;4988123;28;20479;-45
2022/05/24 12:58:36;;;;;;;0.93;0.93;;;25.20;36.10;;;;;;4987030;28;20485;-48
2022/05/24 13:01:13;;;;;;;1.70;1.00;;;25.20;36.80;;;;;;4985161;28;21818;-46
2022/05/24 13:03:57;;;;;;;1.23;1.00;;;25.20;37.10;;;;;;4985959;28;20453;-47
2022/05/24 13:06:31;;;;;;;1.90;1.10;;;25.50;36.50;;;;;;4990689;28;21035;-45
2022/05/24 13:09:26;;;;;;;1.10;1.00;;;25.40;36.10;;;;;;4988497;28;20450;-47
2022/05/24 13:12:07;;;;;;;1.40;0.97;;;25.60;35.60;;;;;;4981420;28;20454;-44
2022/05/24 13:14:56;;;;;;;0.90;0.90;;;25.80;35.40;;;;;;4992921;28;20496;-44
2022/05/24 13:17:23;;;;;;;1.93;0.80;;;25.80;35.80;;;;;;4984355;28;20484;-45
2022/05/24 13:19:56;;;;;;;2.20;0.90;;;25.80;35.10;;;;;;4985334;28;20493;-43
2022/05/24 13:22:39;;;;;;;1.30;1.20;;;25.80;35.40;;;;;;4966460;28;20453;-45
2022/05/24 13:25:09;;;;;;;1.00;0.90;;;25.70;36.10;;;;;;4985798;28;20450;-44
2022/05/24 13:27:54;;;;;;;0.80;0.77;;;25.80;37.30;;;;;;4987776;28;20541;-44
2022/05/24 13:33:45;;;;;;;1.60;1.00;;;25.90;37.20;;;;;;4987516;28;20457;-43
2022/05/24 13:36:16;;;;;;;1.10;1.00;;;25.50;37.50;;;;;;4990259;28;20465;-44
2022/05/24 13:38:43;;;;;;;1.03;0.90;;;25.50;38.20;;;;;;4986957;28;20521;-44
2022/05/24 13:41:10;;;;;;;4.63;1.30;;;25.60;37.10;;;;;;4984018;28;20445;-43
2022/05/24 13:43:45;;;;;;;1.23;1.10;;;25.60;36.70;;;;;;4989823;28;20448;-43
2022/05/24 13:46:14;;;;;;;1.47;0.90;;;25.70;36.70;;;;;;4981525;28;20459;-44
2022/05/24 13:48:44;;;;;;;2.63;1.00;;;25.60;37.30;;;;;;4986329;28;21293;-43
2022/05/24 13:51:19;;;;;;;1.23;0.73;;;25.60;36.80;;;;;;4990134;28;20558;-43